LJPZLDRI

Guest
Details From LJPZ - Portoroz
To LDRI - Rijeka
Flight Number -
Tags Generated
Created
Modified
Stats Distance 43 nm / 79 km
Max Altitude 0 ft / 0 m
Waypoints 2
Social Downloads 3
Likes 0
Share VATSIM

Download

Looking for another format? Having issues loading an existing format? Contact us
Advertisement - Login to hide

Notes

Generated

Route

LJPZ LDRI

ID Type Via Altitude Latitude Longitude Leg Dist Tot Dist Heading (true) Name
O LJPZ APT - 0 ft / 0 m 45.47718˚ 13.61198˚ - 0 nm - -
O LDRI APT - 0 ft / 0 m 45.22566˚ 14.56143˚ 42 nm 42 nm 110° / 111° -

Altitude Profile

Advertisement - Login to hide

LJPZ

Details ICAO LJPZ (POW)
Name PORTOROZ
Region Slovenia
Timezone Europe/Ljubljana (UTC+1.0)
Stats Elevation 7 ft / 2 m (AMSL)
Location 45.472445° 13.615681°
Runways 1
Magnetic Variation 3.442° E

METAR

LJPZ 111530Z 14019KT 120V180 CAVOK 16/09 Q0999

Decode

TAF

Not found

Departure Runways

ID Width Length Bearing (true) Bearing (mag) Surface Threshold Offset Overrun Length
15 98 ft / 30 m 3,939 ft / 1,201 m 151.28° 147.84° Asphalt 0 ft / 0 m 0 ft / 0 m
33 98 ft / 30 m 3,939 ft / 1,201 m 331.29° 327.85° Asphalt 751 ft / 229 m 0 ft / 0 m

LDRI

Details ICAO LDRI (RJK)
Name RIJEKA
Region Croatia
Timezone Europe/Zagreb (UTC+1.0)
Stats Elevation 278 ft / 85 m (AMSL)
Location 45.216635° 14.570813°
Runways 1
Magnetic Variation 3.622° E

METAR

LDRI 111530Z 15021G30KT 9999 BKN020 OVC060 14/09 Q1003

Decode

TAF

TAF LDRI 111125Z 1112/1212 16015KT 9999 BKN030 TX14/1113Z TN12/1206Z TEMPO 1112/1204 16020G30KT PROB40 TEMPO 1112/1114 RA BKN010 TEMPO 1206/1212 RA PROB40 TEMPO 1208/1212 SHRA BKN010 FEW025TCU BECMG 1209/1211 32007KT

Decode

Destination Runways

ID Width Length Bearing (true) Bearing (mag) Surface Threshold Offset Overrun Length
14 148 ft / 45 m 8,161 ft / 2,488 m 143.77° 140.15° Asphalt 0 ft / 0 m 0 ft / 0 m
32 148 ft / 45 m 8,161 ft / 2,488 m 323.78° 320.16° Asphalt 0 ft / 0 m 0 ft / 0 m

Approach Navaids

Runway Type Ident Frequency Range Bearing (true) Bearing (mag) Slope Elevation
14 Localiser IKR 108.50 MHz 25 nm / 46 km 143.68° 140.06° - 200 ft / 61 m (AMSL)
14 Glidescope IKR 108.50 MHz 25 nm / 46 km 143.68° 140.06° 3.00° 259 ft / 79 m (AMSL)

Popular Alternatives